createdAt,value
2023-04-22T00:01:02.414Z,79.18
2023-04-22T00:03:29.952Z,78.00
2023-04-22T00:05:57.774Z,77.11
2023-04-22T00:08:25.652Z,78.33
2023-04-22T00:10:53.000Z,80.10
2023-04-22T00:13:20.231Z,80.26
2023-04-22T00:15:47.678Z,79.27
2023-04-22T00:18:15.359Z,77.86
2023-04-22T00:20:44.279Z,78.34
2023-04-22T00:23:12.778Z,78.26
2023-04-22T00:25:40.852Z,77.91
2023-04-22T00:28:08.201Z,78.18
2023-04-22T00:30:36.295Z,76.75
2023-04-22T00:33:03.898Z,78.11
2023-04-22T00:35:31.160Z,77.44
2023-04-22T00:37:58.466Z,79.21
2023-04-22T00:40:25.654Z,79.59
2023-04-22T00:42:53.552Z,79.76
2023-04-22T00:45:21.429Z,77.01
2023-04-22T00:47:49.272Z,76.36
2023-04-22T00:50:17.034Z,78.35
2023-04-22T00:52:44.563Z,80.19
2023-04-22T00:55:12.372Z,79.22
2023-04-22T00:57:40.667Z,78.50
2023-04-22T01:00:10.221Z,80.84
2023-04-22T01:02:38.939Z,77.47
2023-04-22T01:05:10.798Z,75.62
2023-04-22T01:07:38.200Z,78.15
2023-04-22T01:10:07.507Z,78.51
2023-04-22T01:12:34.997Z,79.04
2023-04-22T01:15:05.076Z,79.23
2023-04-22T01:17:33.965Z,78.97
2023-04-22T01:20:04.064Z,77.70
2023-04-22T01:22:40.639Z,77.58
2023-04-22T01:25:10.464Z,77.20
2023-04-22T01:27:39.676Z,78.45
2023-04-22T01:30:08.550Z,76.94
2023-04-22T01:32:36.337Z,77.25
2023-04-22T01:35:04.060Z,76.92
2023-04-22T01:37:31.372Z,77.74
2023-04-22T01:39:59.402Z,76.38
2023-04-22T01:42:27.082Z,76.47
2023-04-22T01:44:54.749Z,78.38
2023-04-22T01:47:22.031Z,78.37
2023-04-22T01:49:49.402Z,77.73
2023-04-22T01:52:17.931Z,79.88
2023-04-22T01:54:45.327Z,78.81
2023-04-22T01:57:14.462Z,78.19
2023-04-22T01:59:42.092Z,78.53
2023-04-22T02:02:09.785Z,79.44
2023-04-22T02:04:37.207Z,79.76
2023-04-22T02:07:04.549Z,80.05
2023-04-22T02:09:35.727Z,81.16
2023-04-22T02:12:02.990Z,81.00
2023-04-22T02:14:30.196Z,81.95
2023-04-22T02:17:03.399Z,83.36
2023-04-22T02:19:30.837Z,81.88
2023-04-22T02:21:58.580Z,82.01
2023-04-22T02:24:25.852Z,83.64
2023-04-22T02:26:53.236Z,82.31
2023-04-22T02:29:20.708Z,82.26
2023-04-22T02:31:48.068Z,83.86
2023-04-22T02:34:15.487Z,82.36
2023-04-22T02:36:42.639Z,83.92
2023-04-22T02:39:10.584Z,82.75
2023-04-22T02:41:38.405Z,83.75
2023-04-22T02:44:06.567Z,82.87
2023-04-22T02:46:34.797Z,84.24
2023-04-22T02:49:02.153Z,83.33
2023-04-22T02:51:29.550Z,82.42
2023-04-22T02:53:56.845Z,82.34
2023-04-22T02:56:24.172Z,84.58
2023-04-22T02:58:51.333Z,84.05
2023-04-22T03:01:18.713Z,83.75
2023-04-22T03:03:46.781Z,83.76
2023-04-22T03:06:20.042Z,83.72
2023-04-22T03:08:48.831Z,84.14
2023-04-22T03:11:16.131Z,83.76
2023-04-22T03:13:43.424Z,83.00
2023-04-22T03:16:10.852Z,84.38
2023-04-22T03:18:39.084Z,84.19
2023-04-22T03:21:07.376Z,85.32
2023-04-22T03:23:34.851Z,84.14
2023-04-22T03:26:02.180Z,85.38
2023-04-22T03:28:29.479Z,86.51
2023-04-22T03:30:56.702Z,86.55
2023-04-22T03:33:24.160Z,85.24
2023-04-22T03:35:56.245Z,86.72
2023-04-22T03:38:24.495Z,85.72
2023-04-22T03:40:52.332Z,87.23
2023-04-22T03:43:34.688Z,86.88
2023-04-22T03:46:07.651Z,87.78
2023-04-22T03:48:37.841Z,88.64
2023-04-22T03:51:10.504Z,87.37
2023-04-22T03:53:40.494Z,90.05
2023-04-22T03:56:09.084Z,89.47
2023-04-22T03:58:40.240Z,88.30
2023-04-22T04:01:09.104Z,87.16
2023-04-22T04:03:37.258Z,89.92
2023-04-22T04:06:05.850Z,88.62
2023-04-22T04:08:33.172Z,88.42
2023-04-22T04:11:01.094Z,89.14
2023-04-22T04:13:32.493Z,89.05
2023-04-22T04:16:19.453Z,88.02
2023-04-22T04:18:52.567Z,88.00
2023-04-22T04:21:22.210Z,84.59
2023-04-22T04:23:52.475Z,83.73
2023-04-22T04:26:25.242Z,87.07
2023-04-22T04:28:57.549Z,83.02
2023-04-22T04:31:25.020Z,81.31
2023-04-22T04:33:53.863Z,80.42
2023-04-22T04:36:21.170Z,80.47
2023-04-22T04:38:49.377Z,78.46
2023-04-22T04:41:16.798Z,72.56
2023-04-22T04:43:46.401Z,72.52
2023-04-22T04:46:37.993Z,73.46
2023-04-22T04:49:09.480Z,71.76
2023-04-22T04:51:45.191Z,72.13
2023-04-22T04:54:12.829Z,69.31
2023-04-22T04:56:41.298Z,68.31
2023-04-22T04:59:10.502Z,69.28
2023-04-22T05:01:39.277Z,67.22
2023-04-22T05:04:09.446Z,61.89
2023-04-22T05:06:40.036Z,61.98
2023-04-22T05:09:08.210Z,62.70
2023-04-22T05:11:36.350Z,59.22
2023-04-22T05:14:10.848Z,58.32
2023-04-22T05:16:41.703Z,61.09
2023-04-22T05:19:09.906Z,60.38
2023-04-22T05:21:37.606Z,59.54
2023-04-22T05:24:05.150Z,56.87
2023-04-22T05:26:32.703Z,53.61
2023-04-22T05:29:01.726Z,50.90
2023-04-22T05:31:29.248Z,48.89
2023-04-22T05:33:57.549Z,48.90
2023-04-22T05:36:30.593Z,47.99
2023-04-22T05:38:59.302Z,45.96
2023-04-22T05:41:27.134Z,44.97
2023-04-22T05:43:56.464Z,43.93
2023-04-22T05:46:24.189Z,43.82
2023-04-22T05:48:51.649Z,44.84
2023-04-22T05:51:54.349Z,41.78
2023-04-22T05:54:25.891Z,40.69
2023-04-22T05:56:53.245Z,38.30
2023-04-22T05:59:21.789Z,38.33
2023-04-22T06:01:50.139Z,37.42
2023-04-22T06:04:20.676Z,37.14
2023-04-22T06:06:48.286Z,37.19
2023-04-22T06:09:15.637Z,35.64
2023-04-22T06:11:43.007Z,34.79
2023-04-22T06:14:10.526Z,34.23
2023-04-22T06:16:39.982Z,33.87
2023-04-22T06:19:08.069Z,32.63
2023-04-22T06:21:37.262Z,32.45
2023-04-22T06:24:06.160Z,32.20
2023-04-22T06:26:33.580Z,30.58
2023-04-22T06:29:05.291Z,30.19
2023-04-22T06:31:33.506Z,27.91
2023-04-22T06:34:00.912Z,29.64
2023-04-22T06:36:30.635Z,28.77
2023-04-22T06:39:02.690Z,27.94
2023-04-22T06:41:44.448Z,26.66
2023-04-22T06:44:31.187Z,25.77
2023-04-22T06:47:34.048Z,26.24
2023-04-22T06:50:10.788Z,25.34
2023-04-22T06:52:48.057Z,26.02
2023-04-22T06:55:15.558Z,24.96
2023-04-22T06:57:43.031Z,27.79
2023-04-22T07:00:11.113Z,27.56
2023-04-22T07:02:40.157Z,24.37
2023-04-22T07:05:08.137Z,24.30
2023-04-22T07:07:36.012Z,22.89
2023-04-22T07:10:04.457Z,23.83
2023-04-22T07:12:37.156Z,21.97
2023-04-22T07:15:04.984Z,22.18
2023-04-22T07:17:32.224Z,22.09
2023-04-22T07:19:59.592Z,24.04
2023-04-22T07:22:27.021Z,23.02
2023-04-22T07:24:54.431Z,22.42
2023-04-22T07:27:21.818Z,22.60
2023-04-22T07:29:49.319Z,21.34
2023-04-22T07:32:16.715Z,21.86
2023-04-22T07:34:43.976Z,23.43
2023-04-22T07:37:11.321Z,23.42
2023-04-22T07:39:38.972Z,22.28
2023-04-22T07:42:07.373Z,21.12
2023-04-22T07:44:35.449Z,22.56
2023-04-22T07:47:03.917Z,20.63
2023-04-22T07:49:31.184Z,21.74
2023-04-22T07:51:58.947Z,22.12
2023-04-22T07:54:26.267Z,22.08
2023-04-22T07:56:53.585Z,20.46
2023-04-22T07:59:20.916Z,19.80
2023-04-22T08:01:48.178Z,20.74
2023-04-22T08:04:15.728Z,19.07
2023-04-22T08:06:43.475Z,18.61
2023-04-22T08:09:10.792Z,17.58
2023-04-22T08:11:38.028Z,18.59
2023-04-22T08:14:05.444Z,20.39
2023-04-22T08:16:32.849Z,19.44
2023-04-22T08:19:00.136Z,18.37
2023-04-22T08:21:28.395Z,17.09
2023-04-22T08:23:55.701Z,17.47
2023-04-22T08:26:23.139Z,17.62
2023-04-22T08:28:50.404Z,18.13
2023-04-22T08:31:17.793Z,16.67
2023-04-22T08:33:45.127Z,17.56
2023-04-22T08:36:12.927Z,17.11
2023-04-22T08:38:40.085Z,16.61
2023-04-22T08:41:07.501Z,17.21
2023-04-22T08:43:35.670Z,18.05
2023-04-22T08:46:02.884Z,16.30
2023-04-22T08:48:30.446Z,15.96
2023-04-22T08:50:58.639Z,16.00
2023-04-22T08:53:25.964Z,16.20
2023-04-22T08:55:56.661Z,14.92
2023-04-22T08:58:25.298Z,16.11
2023-04-22T09:00:53.122Z,15.11
2023-04-22T09:03:21.876Z,15.21
2023-04-22T09:05:52.996Z,16.75
2023-04-22T09:08:20.893Z,17.48
2023-04-22T09:10:48.546Z,16.72
2023-04-22T09:13:18.058Z,16.07
2023-04-22T09:15:46.281Z,16.56
2023-04-22T09:18:19.311Z,16.13
2023-04-22T09:20:54.572Z,16.28
2023-04-22T09:23:22.355Z,16.20
2023-04-22T09:25:50.367Z,15.73
2023-04-22T09:28:19.663Z,14.86
2023-04-22T09:30:47.049Z,14.92
2023-04-22T09:33:15.720Z,15.58
2023-04-22T09:35:44.402Z,15.54
2023-04-22T09:38:12.867Z,14.75
2023-04-22T09:40:44.304Z,14.61
2023-04-22T09:43:12.148Z,14.86
2023-04-22T09:45:43.561Z,14.74
2023-04-22T09:48:18.356Z,15.37
2023-04-22T09:50:51.806Z,15.36
2023-04-22T09:53:21.809Z,15.27
2023-04-22T09:55:54.514Z,14.95
2023-04-22T09:58:27.735Z,16.46
2023-04-22T10:00:59.120Z,15.88
2023-04-22T10:03:26.992Z,16.34
2023-04-22T10:05:54.348Z,16.10
2023-04-22T10:08:21.603Z,15.45
2023-04-22T10:10:48.819Z,14.17
2023-04-22T10:13:16.452Z,16.26
2023-04-22T10:15:52.430Z,16.63
2023-04-22T10:18:25.094Z,16.64
2023-04-22T10:20:54.345Z,17.29
2023-04-22T10:23:23.647Z,15.71
2023-04-22T10:25:55.603Z,16.07
2023-04-22T10:28:27.591Z,15.48
2023-04-22T10:30:55.157Z,16.30
2023-04-22T10:33:27.407Z,17.73
2023-04-22T10:36:14.851Z,17.41
2023-04-22T10:39:03.500Z,18.01
2023-04-22T10:41:34.786Z,17.20
2023-04-22T10:44:09.271Z,16.13
2023-04-22T10:46:45.603Z,16.75
2023-04-22T10:49:18.240Z,18.99
2023-04-22T10:51:51.335Z,17.09
2023-04-22T10:54:30.582Z,16.70
2023-04-22T10:57:22.480Z,17.41
2023-04-22T10:59:54.121Z,17.32
2023-04-22T11:02:23.793Z,18.63
2023-04-22T11:04:55.143Z,18.06
2023-04-22T11:07:27.979Z,17.47
2023-04-22T11:10:35.704Z,19.17
2023-04-22T11:13:03.614Z,18.45
2023-04-22T11:15:31.610Z,18.64
2023-04-22T11:17:59.533Z,19.08
2023-04-22T11:20:31.277Z,21.20
2023-04-22T11:22:59.152Z,21.12
2023-04-22T11:25:27.256Z,20.48
2023-04-22T11:27:57.444Z,20.24
2023-04-22T11:30:27.042Z,21.49
2023-04-22T11:32:59.977Z,21.08
2023-04-22T11:35:34.043Z,23.80
2023-04-22T11:38:06.520Z,22.76
2023-04-22T11:40:38.951Z,22.91
2023-04-22T11:43:09.403Z,22.21
2023-04-22T11:45:38.992Z,25.14
2023-04-22T11:48:09.716Z,24.73
2023-04-22T11:50:44.118Z,24.26
2023-04-22T11:53:24.302Z,25.55
2023-04-22T11:55:52.366Z,24.86
2023-04-22T11:58:28.260Z,25.12
2023-04-22T12:00:58.748Z,24.92
2023-04-22T12:03:29.198Z,25.73
2023-04-22T12:06:04.709Z,26.99
2023-04-22T12:08:36.945Z,25.45
2023-04-22T12:11:07.603Z,25.25
2023-04-22T12:13:48.147Z,27.51
2023-04-22T12:16:20.188Z,28.93
2023-04-22T12:18:55.663Z,25.66
2023-04-22T12:21:28.529Z,26.51
2023-04-22T12:24:00.830Z,27.94
2023-04-22T12:26:28.285Z,28.04
2023-04-22T12:29:00.672Z,30.09
2023-04-22T12:31:28.773Z,28.38
2023-04-22T12:33:56.743Z,29.97
2023-04-22T12:36:25.188Z,28.42
2023-04-22T12:38:52.815Z,28.62
2023-04-22T12:41:20.298Z,31.02
2023-04-22T12:43:47.782Z,28.63
2023-04-22T12:46:15.182Z,28.91
2023-04-22T12:48:42.982Z,29.28
2023-04-22T12:51:10.488Z,27.99
2023-04-22T12:53:37.831Z,29.20
2023-04-22T12:56:05.456Z,28.77
2023-04-22T12:58:32.719Z,30.52
2023-04-22T13:00:59.989Z,30.69
2023-04-22T13:03:27.669Z,28.49
2023-04-22T13:05:55.701Z,29.48
2023-04-22T13:08:23.022Z,29.90
2023-04-22T13:10:50.503Z,28.25
2023-04-22T13:13:19.267Z,27.68
2023-04-22T13:15:53.328Z,30.47
2023-04-22T13:18:23.215Z,30.13
2023-04-22T13:20:51.340Z,29.96
2023-04-22T13:23:21.622Z,29.97
2023-04-22T13:25:50.510Z,29.85
2023-04-22T13:28:17.913Z,29.00
2023-04-22T13:30:45.489Z,30.63
2023-04-22T13:33:12.855Z,28.46
2023-04-22T13:35:40.126Z,29.18
2023-04-22T13:38:07.446Z,30.54
2023-04-22T13:40:35.107Z,30.65
2023-04-22T13:43:02.394Z,29.28
2023-04-22T13:45:29.837Z,27.47
2023-04-22T13:47:57.193Z,30.11
2023-04-22T13:50:24.478Z,30.59
2023-04-22T13:52:51.872Z,31.60
2023-04-22T13:55:19.161Z,31.13
2023-04-22T13:57:46.513Z,29.02
2023-04-22T14:00:14.522Z,28.34
2023-04-22T14:02:41.934Z,29.07
2023-04-22T14:05:10.658Z,27.68
2023-04-22T14:07:38.063Z,27.78
2023-04-22T14:10:08.385Z,28.76
2023-04-22T14:12:35.777Z,26.84
2023-04-22T14:15:03.362Z,29.27
2023-04-22T14:17:30.675Z,30.61
2023-04-22T14:19:58.024Z,28.36
2023-04-22T14:22:25.295Z,30.11
2023-04-22T14:24:52.518Z,29.37
2023-04-22T14:27:19.751Z,29.32
2023-04-22T14:29:47.041Z,29.13
2023-04-22T14:32:14.216Z,28.92
2023-04-22T14:34:41.342Z,30.03
2023-04-22T14:37:08.549Z,30.77
2023-04-22T14:39:35.968Z,30.72
2023-04-22T14:42:04.766Z,29.81
2023-04-22T14:44:32.202Z,33.71
2023-04-22T14:46:59.410Z,32.18
2023-04-22T14:49:26.653Z,31.26
2023-04-22T14:51:54.037Z,33.04
2023-04-22T14:54:21.457Z,31.89
2023-04-22T14:56:48.683Z,33.27
2023-04-22T14:59:16.014Z,30.85
2023-04-22T15:01:43.361Z,32.28
2023-04-22T15:04:13.664Z,30.18
2023-04-22T15:06:41.477Z,31.96
2023-04-22T15:09:08.636Z,31.80
2023-04-22T15:11:35.813Z,32.04
2023-04-22T15:14:03.196Z,32.32
2023-04-22T15:16:30.748Z,31.04
2023-04-22T15:18:58.031Z,31.29
2023-04-22T15:21:25.230Z,31.33
2023-04-22T15:23:52.503Z,32.75
2023-04-22T15:26:19.815Z,31.71
2023-04-22T15:28:47.152Z,31.04
2023-04-22T15:31:14.431Z,31.44
2023-04-22T15:33:41.644Z,31.84
2023-04-22T15:36:09.785Z,30.57
2023-04-22T15:38:38.690Z,31.50
2023-04-22T15:41:06.099Z,32.46
2023-04-22T15:43:33.831Z,31.64
2023-04-22T15:46:01.778Z,31.89
2023-04-22T15:48:29.030Z,34.00
2023-04-22T15:50:56.334Z,32.33
2023-04-22T15:53:23.633Z,31.63
2023-04-22T15:55:51.649Z,32.62
2023-04-22T15:58:19.074Z,32.15
2023-04-22T16:00:46.760Z,31.28
2023-04-22T16:03:14.579Z,32.91
2023-04-22T16:05:42.074Z,32.26
2023-04-22T16:08:09.354Z,38.21
2023-04-22T16:10:36.656Z,33.95
2023-04-22T16:13:03.940Z,33.65
2023-04-22T16:15:31.509Z,34.58
2023-04-22T16:17:59.001Z,34.00
2023-04-22T16:20:26.352Z,33.67
2023-04-22T16:22:53.540Z,34.45
2023-04-22T16:25:21.098Z,32.70
2023-04-22T16:27:48.476Z,33.70
2023-04-22T16:30:16.361Z,38.46
2023-04-22T16:32:43.855Z,37.21
2023-04-22T16:35:11.504Z,36.08
2023-04-22T16:37:38.776Z,34.54
2023-04-22T16:40:07.964Z,35.17
2023-04-22T16:42:35.918Z,35.75
2023-04-22T16:45:03.491Z,37.48
2023-04-22T16:47:30.764Z,40.62
2023-04-22T16:49:58.284Z,39.47
2023-04-22T16:52:25.634Z,38.48
2023-04-22T16:54:52.947Z,38.98
2023-04-22T16:57:20.270Z,38.53
2023-04-22T16:59:47.551Z,39.83
2023-04-22T17:02:15.060Z,39.13
2023-04-22T17:04:42.384Z,40.41
2023-04-22T17:07:09.666Z,41.40
2023-04-22T17:09:36.888Z,41.74
2023-04-22T17:12:04.421Z,43.07
2023-04-22T17:14:31.923Z,43.45
2023-04-22T17:16:59.341Z,44.81
2023-04-22T17:19:27.250Z,41.80
2023-04-22T17:21:54.633Z,42.72
2023-04-22T17:24:22.525Z,44.19
2023-04-22T17:26:49.939Z,46.09
2023-04-22T17:29:21.494Z,44.21
2023-04-22T17:31:50.041Z,45.87
2023-04-22T17:34:17.603Z,44.60
2023-04-22T17:36:44.910Z,46.59
2023-04-22T17:39:12.250Z,47.18
2023-04-22T17:41:39.511Z,47.28
2023-04-22T17:44:08.876Z,45.80
2023-04-22T17:46:36.170Z,46.25
2023-04-22T17:49:03.608Z,47.22
2023-04-22T17:51:31.596Z,49.38
2023-04-22T17:54:00.859Z,49.42
2023-04-22T17:56:28.217Z,49.28
2023-04-22T17:58:55.468Z,48.88
2023-04-22T18:01:22.812Z,47.99
2023-04-22T18:03:50.144Z,48.54
2023-04-22T18:06:17.588Z,47.85
2023-04-22T18:08:44.909Z,47.08
2023-04-22T18:11:12.273Z,46.47
2023-04-22T18:13:39.676Z,47.44
2023-04-22T18:16:07.150Z,46.86
2023-04-22T18:18:35.497Z,46.21
2023-04-22T18:21:02.920Z,46.57
2023-04-22T18:23:30.587Z,46.52
2023-04-22T18:25:57.835Z,50.05
2023-04-22T18:28:25.197Z,52.28
2023-04-22T18:30:52.908Z,52.09
2023-04-22T18:33:20.152Z,51.90
2023-04-22T18:35:47.504Z,55.88
2023-04-22T18:38:14.754Z,56.85
2023-04-22T18:40:42.539Z,53.23
2023-04-22T18:43:09.945Z,54.88
2023-04-22T18:45:37.177Z,55.94
2023-04-22T18:48:04.661Z,55.46
2023-04-22T18:50:31.925Z,58.46
2023-04-22T18:52:59.144Z,57.47
2023-04-22T18:55:26.466Z,56.40
2023-04-22T18:57:53.990Z,55.92
2023-04-22T19:00:21.531Z,58.29
2023-04-22T19:02:49.032Z,56.74
2023-04-22T19:05:18.138Z,56.02
2023-04-22T19:07:45.480Z,57.20
2023-04-22T19:10:12.818Z,56.03
2023-04-22T19:12:40.210Z,55.30
2023-04-22T19:15:08.539Z,54.06
2023-04-22T19:17:36.031Z,53.27
2023-04-22T19:20:05.318Z,53.01
2023-04-22T19:22:32.752Z,54.94
2023-04-22T19:25:01.136Z,56.78
2023-04-22T19:27:28.619Z,55.56
2023-04-22T19:29:55.933Z,55.75
2023-04-22T19:32:23.280Z,54.84
2023-04-22T19:34:50.571Z,55.91
2023-04-22T19:37:18.236Z,56.06
2023-04-22T19:39:45.635Z,56.36
2023-04-22T19:42:12.983Z,55.71
2023-04-22T19:45:09.239Z,57.47
2023-04-22T19:47:38.180Z,56.87
2023-04-22T19:50:08.417Z,59.25
2023-04-22T19:52:36.528Z,58.81
2023-04-22T19:55:09.263Z,60.64
2023-04-22T19:57:38.858Z,61.14
2023-04-22T20:00:07.781Z,61.56
2023-04-22T20:03:07.973Z,57.61
2023-04-22T20:05:37.201Z,59.46
2023-04-22T20:08:07.113Z,65.08
2023-04-22T20:10:34.690Z,66.31
2023-04-22T20:13:04.486Z,66.76
2023-04-22T20:15:33.196Z,65.18
2023-04-22T20:18:00.884Z,63.80
2023-04-22T20:20:29.012Z,66.73
2023-04-22T20:23:00.761Z,65.42
2023-04-22T20:25:28.908Z,64.84
2023-04-22T20:27:57.117Z,64.75
2023-04-22T20:30:24.579Z,67.17
2023-04-22T20:32:52.287Z,69.86
2023-04-22T20:35:20.633Z,70.68
2023-04-22T20:37:48.633Z,67.41
2023-04-22T20:40:16.914Z,66.18
2023-04-22T20:42:44.218Z,65.43
2023-04-22T20:45:15.644Z,66.88
2023-04-22T20:47:43.225Z,67.97
2023-04-22T20:50:11.434Z,67.12
2023-04-22T20:52:39.134Z,68.72
2023-04-22T20:55:07.269Z,71.42
2023-04-22T20:57:34.485Z,71.03
2023-04-22T21:00:01.864Z,68.68
2023-04-22T21:02:30.942Z,66.45
2023-04-22T21:04:59.263Z,66.04
2023-04-22T21:07:30.747Z,65.68
2023-04-22T21:09:58.976Z,71.22
2023-04-22T21:12:27.345Z,66.76
2023-04-22T21:14:55.284Z,67.39
2023-04-22T21:17:29.772Z,65.56
2023-04-22T21:19:58.208Z,67.91
2023-04-22T21:22:26.165Z,72.35
2023-04-22T21:24:54.520Z,69.94
2023-04-22T21:27:22.570Z,68.35
2023-04-22T21:29:50.500Z,68.21
2023-04-22T21:32:20.332Z,69.13
2023-04-22T21:34:47.875Z,68.53
2023-04-22T21:37:15.402Z,73.16
2023-04-22T21:39:42.807Z,68.04
2023-04-22T21:42:10.120Z,69.75
2023-04-22T21:44:38.325Z,69.93
2023-04-22T21:47:06.706Z,73.36
2023-04-22T21:49:34.097Z,72.11
2023-04-22T21:52:01.454Z,71.13
2023-04-22T21:54:29.021Z,71.43
2023-04-22T21:56:57.697Z,74.04
2023-04-22T21:59:24.909Z,74.38
2023-04-22T22:01:52.676Z,73.17
2023-04-22T22:04:20.202Z,72.22
2023-04-22T22:06:48.942Z,76.50
2023-04-22T22:09:16.220Z,74.66
2023-04-22T22:11:43.486Z,71.74
2023-04-22T22:14:10.790Z,73.09
2023-04-22T22:16:38.638Z,73.95
2023-04-22T22:19:06.450Z,72.41
2023-04-22T22:21:33.639Z,73.31
2023-04-22T22:24:01.040Z,74.11
2023-04-22T22:26:29.213Z,75.63
2023-04-22T22:28:56.620Z,77.33
2023-04-22T22:31:23.885Z,75.69
2023-04-22T22:33:51.166Z,75.94
2023-04-22T22:36:19.096Z,77.19
2023-04-22T22:38:46.476Z,77.14
2023-04-22T22:41:14.201Z,78.29
2023-04-22T22:43:41.509Z,77.48
2023-04-22T22:46:09.081Z,76.35
2023-04-22T22:48:36.968Z,77.60
2023-04-22T22:51:04.363Z,78.21
2023-04-22T22:53:33.188Z,79.63
2023-04-22T22:56:00.585Z,79.90
2023-04-22T22:58:27.850Z,78.27
2023-04-22T23:00:55.119Z,80.84
2023-04-22T23:03:23.274Z,78.05
2023-04-22T23:05:50.657Z,77.94
2023-04-22T23:08:18.068Z,77.77
2023-04-22T23:10:45.317Z,78.62
2023-04-22T23:13:12.516Z,78.66
2023-04-22T23:15:39.975Z,80.19
2023-04-22T23:18:09.064Z,77.38
2023-04-22T23:20:37.268Z,81.00
2023-04-22T23:23:05.812Z,79.15
2023-04-22T23:25:33.413Z,80.61
2023-04-22T23:28:01.633Z,82.04
2023-04-22T23:30:29.459Z,81.42
2023-04-22T23:33:02.168Z,79.24
2023-04-22T23:35:34.558Z,81.78
2023-04-22T23:38:04.050Z,81.52
2023-04-22T23:40:31.520Z,81.35
2023-04-22T23:42:58.776Z,81.75
2023-04-22T23:45:26.106Z,80.32
2023-04-22T23:47:53.465Z,79.72
2023-04-22T23:50:20.857Z,79.46
2023-04-22T23:52:48.072Z,80.13
2023-04-22T23:55:16.133Z,80.45
2023-04-22T23:57:43.863Z,81.56
